Overview Statistics Trail Chart Weather Telemetry Raw packets
 

This is the latest recevied weather packets stored in our database for station/object 9M4GEK-3. If no packets are shown the sender has not sent any weather packets the latest 10 day(s).

<< 1 2 3 4 5 6 7 >>
Time Temp. Humidity Pressure Rain* Wind** Luminosity Snow
1788553971 29.44° C 60% 1010.1 hPa - - - -
1788553164 40° C 32% 1008.1 hPa - - - -
1788553071 29.44° C 60% 1010.1 hPa - - - -
1788552171 29.44° C 60% 1010.1 hPa - - - -
1788552047 41.11° C 30% 1007.9 hPa - - - -
1788551271 29.44° C 60% 1010 hPa - - - -
1788550371 29.44° C 60% 1010 hPa - - - -
1788549819 41.67° C 29% 1008.1 hPa - - - -
1788549471 29.44° C 60% 1010.2 hPa - - - -
1788548571 29.44° C 60% 1010.3 hPa - - - -
1788547671 29.44° C 60% 1010.4 hPa - - - -
1788546771 29.44° C 60% 1010.3 hPa - - - -
1788546546 42.78° C 27% 1008.3 hPa - - - -
1788545871 30° C 59% 1010.4 hPa - - - -
1788544971 30° C 59% 1010.6 hPa - - - -
1788544071 30° C 59% 1010.6 hPa - - - -
1788543170 30° C 58% 1010.9 hPa - - - -
1788542271 30° C 58% 1011 hPa - - - -
1788541370 30° C 58% 1011.1 hPa - - - -
1788540470 30° C 58% 1011.1 hPa - - - -
1788539570 30° C 58% 1011.2 hPa - - - -
1788538670 30° C 57% 1011.4 hPa - - - -
1788537770 30° C 57% 1011.5 hPa - - - -
1788537621 45.56° C 26% 1008.9 hPa - - - -
1788536870 30.56° C 56% 1011.6 hPa - - - -

* Rain since midnight (hover to see other rain measurements)
** Current wind speed in m/s (hover to see current wind gust speed)